Time;durP1;ratioP1;P1;durP2;ratioP2;P2;SDS_P1;SDS_P2;PMS_P1;PMS_P2;Temp;Humidity;BMP_temperature;BMP_pressure;BME280_temperature;BME280_humidity;BME280_pressure;Samples;Min_cycle;Max_cycle;Signal;HPM_P1;HPM_P2
2022/04/07 00:01:17;;;;;;;1.70;1.42;;;10.90;99.90;;;;;;5011720;28;20185;-76
2022/04/07 00:03:43;;;;;;;1.50;1.40;;;10.90;99.90;;;;;;5013896;28;20169;-75
2022/04/07 00:06:09;;;;;;;1.42;1.38;;;10.90;99.90;;;;;;5014131;28;20686;-75
2022/04/07 00:08:39;;;;;;;2.05;1.40;;;11.00;99.90;;;;;;5014519;28;20296;-76
2022/04/07 00:11:05;;;;;;;1.60;1.13;;;11.10;99.90;;;;;;5009019;28;20278;-76
2022/04/07 00:13:31;;;;;;;1.30;1.20;;;11.10;99.90;;;;;;5000809;28;20178;-76
2022/04/07 00:15:59;;;;;;;2.97;1.42;;;11.20;99.90;;;;;;5013679;28;20244;-76
2022/04/07 00:18:25;;;;;;;1.05;1.05;;;11.20;99.90;;;;;;5009978;28;20180;-76
2022/04/07 00:20:52;;;;;;;1.30;1.30;;;11.20;99.90;;;;;;5012709;28;20181;-75
2022/04/07 00:23:21;;;;;;;1.42;1.30;;;11.20;99.90;;;;;;5014102;28;20268;-75
2022/04/07 00:25:48;;;;;;;1.00;1.00;;;11.10;99.90;;;;;;5013598;28;20188;-75
2022/04/07 00:28:13;;;;;;;0.90;0.90;;;11.20;99.90;;;;;;5014163;28;20228;-76
2022/04/07 00:30:39;;;;;;;1.00;1.00;;;11.10;99.90;;;;;;5001103;28;20649;-76
2022/04/07 00:33:06;;;;;;;1.75;1.35;;;11.10;99.90;;;;;;5009376;28;20174;-76
2022/04/07 00:35:32;;;;;;;1.10;1.10;;;11.10;99.90;;;;;;5013771;28;20189;-75
2022/04/07 00:37:57;;;;;;;1.60;1.20;;;11.10;99.90;;;;;;5012833;28;20547;-76
2022/04/07 00:40:23;;;;;;;1.73;1.63;;;11.00;99.90;;;;;;5013535;28;20181;-76
2022/04/07 00:42:50;;;;;;;1.40;1.30;;;11.00;99.90;;;;;;5013022;28;20189;-76
2022/04/07 00:45:18;;;;;;;3.42;1.77;;;10.90;99.90;;;;;;5013733;28;20173;-75
2022/04/07 00:47:45;;;;;;;1.50;1.48;;;10.80;99.90;;;;;;4996726;28;20214;-76
2022/04/07 00:50:11;;;;;;;1.33;1.23;;;10.80;99.90;;;;;;5004779;28;20721;-76
2022/04/07 00:52:43;;;;;;;1.60;1.50;;;10.90;99.90;;;;;;5013888;28;20181;-76
2022/04/07 00:55:13;;;;;;;1.70;1.60;;;10.80;99.90;;;;;;5013570;28;20166;-76
2022/04/07 00:57:39;;;;;;;1.67;1.58;;;10.80;99.90;;;;;;4996029;28;20211;-75
2022/04/07 01:00:07;;;;;;;1.80;1.70;;;10.80;99.90;;;;;;5012491;28;20232;-75
2022/04/07 01:02:33;;;;;;;1.50;1.40;;;10.70;99.90;;;;;;5011771;28;20185;-76
2022/04/07 01:04:59;;;;;;;1.98;1.88;;;10.70;99.90;;;;;;5007849;28;20182;-76
2022/04/07 01:07:25;;;;;;;2.05;1.70;;;10.80;99.90;;;;;;5000829;28;20299;-75
2022/04/07 01:09:51;;;;;;;1.75;1.67;;;10.80;99.90;;;;;;5012230;28;20221;-74
2022/04/07 01:12:17;;;;;;;5.05;1.77;;;10.80;99.90;;;;;;5012425;28;20520;-75
2022/04/07 01:15:00;;;;;;;3.45;1.80;;;10.80;99.90;;;;;;5007439;28;20240;-74
2022/04/07 01:17:27;;;;;;;2.38;1.98;;;10.80;99.90;;;;;;5010494;28;20598;-75
2022/04/07 01:19:53;;;;;;;3.47;1.88;;;10.80;99.90;;;;;;5013174;28;20256;-76
2022/04/07 01:22:20;;;;;;;2.42;2.20;;;10.80;99.90;;;;;;5013032;28;20583;-75
2022/04/07 01:24:47;;;;;;;2.38;2.05;;;10.80;99.90;;;;;;5007850;28;20189;-76
2022/04/07 01:27:13;;;;;;;1.77;1.73;;;10.80;99.90;;;;;;4992318;28;20276;-74
2022/04/07 01:29:39;;;;;;;2.20;2.10;;;10.80;99.90;;;;;;4993614;28;20209;-75
2022/04/07 01:32:10;;;;;;;1.52;1.50;;;10.80;99.90;;;;;;4993649;28;20338;-75
2022/04/07 01:34:36;;;;;;;1.88;1.77;;;10.80;99.90;;;;;;5001619;28;20180;-74
2022/04/07 01:37:02;;;;;;;2.15;2.05;;;10.80;99.90;;;;;;4996033;28;20292;-75
2022/04/07 01:39:28;;;;;;;2.30;2.10;;;10.70;99.90;;;;;;5012699;28;20177;-76
2022/04/07 01:41:54;;;;;;;1.88;1.67;;;10.60;99.90;;;;;;5006741;28;20592;-75
2022/04/07 01:44:22;;;;;;;1.58;1.48;;;10.60;99.90;;;;;;5012805;28;20177;-75
2022/04/07 01:46:48;;;;;;;2.85;2.03;;;10.60;99.90;;;;;;5012214;28;20208;-76
2022/04/07 01:49:14;;;;;;;2.00;1.90;;;10.70;99.90;;;;;;5012217;28;20535;-76
2022/04/07 01:51:42;;;;;;;1.75;1.65;;;10.50;99.90;;;;;;4997662;28;20252;-76
2022/04/07 01:54:11;;;;;;;3.88;2.15;;;10.40;99.90;;;;;;4992974;28;20170;-76
2022/04/07 01:56:42;;;;;;;1.92;1.83;;;10.30;99.90;;;;;;4992475;28;20190;-76
2022/04/07 01:59:09;;;;;;;1.70;1.60;;;10.30;99.90;;;;;;4998006;28;20178;-76
2022/04/07 02:01:35;;;;;;;2.63;1.55;;;10.10;99.90;;;;;;4993044;28;20653;-76
2022/04/07 02:04:01;;;;;;;1.60;1.60;;;10.00;99.90;;;;;;4992973;28;20170;-76
2022/04/07 02:06:27;;;;;;;1.60;1.50;;;10.00;99.90;;;;;;4992349;28;20198;-77
2022/04/07 02:08:53;;;;;;;1.60;1.50;;;9.90;99.90;;;;;;4992819;28;20177;-75
2022/04/07 02:11:19;;;;;;;1.75;1.52;;;9.90;99.90;;;;;;5008409;28;20185;-74
2022/04/07 02:13:45;;;;;;;1.48;1.35;;;9.90;99.90;;;;;;5012181;28;20548;-76
2022/04/07 02:16:11;;;;;;;1.17;1.17;;;10.00;99.90;;;;;;5002854;28;20205;-76
2022/04/07 02:18:38;;;;;;;1.63;1.52;;;10.00;99.90;;;;;;4992537;28;20178;-76
2022/04/07 02:21:04;;;;;;;1.63;1.52;;;10.10;99.90;;;;;;5005684;28;20180;-76
2022/04/07 02:23:30;;;;;;;1.73;1.63;;;10.10;99.90;;;;;;5011095;28;20180;-76
2022/04/07 02:25:56;;;;;;;1.70;1.60;;;10.10;99.90;;;;;;5020167;28;20622;-76
2022/04/07 02:28:23;;;;;;;1.30;1.30;;;10.20;99.90;;;;;;5014998;28;20197;-76
2022/04/07 02:30:49;;;;;;;2.65;1.45;;;10.30;99.90;;;;;;5012102;28;20184;-76
2022/04/07 02:33:15;;;;;;;0.82;0.82;;;10.40;99.90;;;;;;5012357;28;20200;-77
2022/04/07 02:35:40;;;;;;;2.00;1.58;;;10.40;99.90;;;;;;5011773;28;20211;-75
2022/04/07 02:38:06;;;;;;;1.42;1.35;;;10.30;99.90;;;;;;5015134;28;20176;-75
2022/04/07 02:40:32;;;;;;;1.35;1.35;;;10.20;99.90;;;;;;5015766;28;20724;-75
2022/04/07 02:42:57;;;;;;;1.85;1.75;;;10.00;99.90;;;;;;4995171;28;20558;-75
2022/04/07 02:45:23;;;;;;;2.03;1.92;;;9.80;99.90;;;;;;5009645;28;20263;-74
2022/04/07 02:47:49;;;;;;;2.58;1.65;;;9.60;99.90;;;;;;5020028;28;20201;-74
2022/04/07 02:50:16;;;;;;;2.08;1.95;;;9.50;99.90;;;;;;5010556;28;20638;-73
2022/04/07 02:52:42;;;;;;;2.38;2.17;;;9.30;99.90;;;;;;4991946;28;20174;-74
2022/04/07 02:55:08;;;;;;;2.72;2.63;;;9.20;99.90;;;;;;4992231;28;20182;-74
2022/04/07 02:57:34;;;;;;;2.10;2.00;;;9.20;99.90;;;;;;5007269;28;20209;-74
2022/04/07 03:00:01;;;;;;;2.08;1.98;;;9.10;99.90;;;;;;5004338;28;20550;-73
2022/04/07 03:02:27;;;;;;;2.72;2.33;;;9.10;99.90;;;;;;5008732;28;20177;-74
2022/04/07 03:04:52;;;;;;;2.25;2.15;;;9.10;99.90;;;;;;5010479;28;20263;-74
2022/04/07 03:07:19;;;;;;;2.10;2.00;;;9.00;99.90;;;;;;5002189;28;20685;-73
2022/04/07 03:09:45;;;;;;;2.05;1.95;;;8.90;99.90;;;;;;5011559;28;20207;-73
2022/04/07 03:12:13;;;;;;;2.00;1.90;;;8.70;99.90;;;;;;5011905;28;20197;-73
2022/04/07 03:14:39;;;;;;;2.17;2.08;;;8.70;99.90;;;;;;5011571;28;20235;-73
2022/04/07 03:17:05;;;;;;;2.78;2.63;;;8.60;99.90;;;;;;5000750;28;20256;-74
2022/04/07 03:19:31;;;;;;;2.30;2.20;;;8.60;99.90;;;;;;5009624;28;20224;-74
2022/04/07 03:21:57;;;;;;;2.08;1.98;;;8.60;99.90;;;;;;5019948;28;20216;-74
2022/04/07 03:24:24;;;;;;;1.92;1.83;;;8.60;99.90;;;;;;5014768;28;20323;-74
2022/04/07 03:26:50;;;;;;;1.90;1.80;;;8.50;99.90;;;;;;5012360;28;20290;-74
2022/04/07 03:29:21;;;;;;;1.85;1.75;;;8.50;99.90;;;;;;5022590;28;20182;-74
2022/04/07 03:31:48;;;;;;;1.67;1.65;;;8.50;99.90;;;;;;5016390;28;20303;-73
2022/04/07 03:34:14;;;;;;;2.28;2.03;;;8.50;99.90;;;;;;5011611;28;20205;-74
2022/04/07 03:36:40;;;;;;;1.70;1.60;;;8.40;99.90;;;;;;5009631;28;20906;-73
2022/04/07 03:39:06;;;;;;;1.60;1.60;;;8.40;99.90;;;;;;5011452;28;20211;-74
2022/04/07 03:41:31;;;;;;;1.95;1.88;;;8.40;99.90;;;;;;5019557;28;20286;-73
2022/04/07 03:43:57;;;;;;;2.00;1.90;;;8.40;99.90;;;;;;5009438;28;20523;-74
2022/04/07 03:46:23;;;;;;;1.77;1.67;;;8.40;99.90;;;;;;5011738;28;20298;-73
2022/04/07 03:48:49;;;;;;;1.70;1.60;;;8.40;99.90;;;;;;5022775;28;20207;-73
2022/04/07 03:51:17;;;;;;;3.55;3.35;;;8.40;99.90;;;;;;5030549;28;20173;-73
2022/04/07 03:53:42;;;;;;;2.45;2.35;;;8.30;99.90;;;;;;5011420;28;20188;-73
2022/04/07 03:56:08;;;;;;;3.63;3.38;;;8.30;99.90;;;;;;4999780;28;20197;-73
2022/04/07 03:58:34;;;;;;;2.40;2.30;;;8.40;99.90;;;;;;5011775;28;20186;-73
2022/04/07 04:00:59;;;;;;;1.42;1.40;;;8.40;99.90;;;;;;5014424;28;20193;-73
2022/04/07 04:03:25;;;;;;;1.88;1.77;;;8.40;99.90;;;;;;5006272;28;20181;-73
2022/04/07 04:05:50;;;;;;;2.00;1.90;;;8.40;99.90;;;;;;5013904;28;20185;-73
2022/04/07 04:08:16;;;;;;;1.30;1.30;;;8.30;99.90;;;;;;5014209;28;20551;-73
2022/04/07 04:10:42;;;;;;;1.63;1.60;;;8.30;99.90;;;;;;5010417;28;20201;-73
2022/04/07 04:13:07;;;;;;;1.65;1.55;;;8.30;99.90;;;;;;5014488;28;20178;-73
2022/04/07 04:15:33;;;;;;;1.52;1.52;;;8.30;99.90;;;;;;5015144;28;20408;-74
2022/04/07 04:17:59;;;;;;;1.80;1.80;;;8.30;99.90;;;;;;5016205;28;20652;-74
2022/04/07 04:20:24;;;;;;;1.70;1.60;;;8.30;99.90;;;;;;4999430;28;20664;-73
2022/04/07 04:22:50;;;;;;;1.60;1.60;;;8.20;99.90;;;;;;5013495;28;20185;-73
2022/04/07 04:25:16;;;;;;;2.50;1.83;;;8.20;99.90;;;;;;5018833;28;20638;-73
2022/04/07 04:27:42;;;;;;;2.00;1.90;;;8.20;99.90;;;;;;5008476;28;20224;-73
2022/04/07 04:30:08;;;;;;;1.80;1.70;;;8.30;99.90;;;;;;5013346;28;20197;-73
2022/04/07 04:32:34;;;;;;;2.00;1.90;;;8.30;99.90;;;;;;5013500;28;20288;-74
2022/04/07 04:34:59;;;;;;;1.77;1.67;;;8.30;99.90;;;;;;5013738;28;20611;-73
2022/04/07 04:37:26;;;;;;;1.70;1.60;;;8.30;99.90;;;;;;5014075;28;20204;-74
2022/04/07 04:39:55;;;;;;;1.65;1.60;;;8.30;99.90;;;;;;5008788;28;20190;-74
2022/04/07 04:42:21;;;;;;;1.67;1.60;;;8.40;99.90;;;;;;4994015;28;20616;-74
2022/04/07 04:44:47;;;;;;;1.85;1.75;;;8.50;99.90;;;;;;5003831;28;20177;-74
2022/04/07 04:47:13;;;;;;;1.27;1.27;;;8.70;99.90;;;;;;5012234;28;20557;-74
2022/04/07 04:49:42;;;;;;;1.23;1.23;;;8.80;99.90;;;;;;5013242;28;20241;-76
2022/04/07 04:52:11;;;;;;;2.15;1.60;;;8.90;99.90;;;;;;5022007;28;20180;-74
2022/04/07 04:54:38;;;;;;;2.22;1.33;;;9.10;99.90;;;;;;5023023;28;20223;-75
2022/04/07 04:57:04;;;;;;;1.63;1.52;;;9.10;99.90;;;;;;5021396;28;20215;-76
2022/04/07 04:59:30;;;;;;;2.10;2.00;;;9.20;99.90;;;;;;5012582;28;20185;-76
2022/04/07 05:01:55;;;;;;;1.48;1.38;;;9.30;99.90;;;;;;5019458;28;20264;-75
2022/04/07 05:04:21;;;;;;;1.40;1.30;;;9.30;99.90;;;;;;5016785;28;20178;-75
2022/04/07 05:06:47;;;;;;;1.73;1.63;;;9.40;99.90;;;;;;5009707;28;20293;-74
2022/04/07 05:09:12;;;;;;;1.30;1.30;;;9.40;99.90;;;;;;5003939;28;20587;-75
2022/04/07 05:11:38;;;;;;;1.42;1.33;;;9.50;99.90;;;;;;5011256;28;20597;-75
2022/04/07 05:14:04;;;;;;;1.90;1.65;;;9.60;99.90;;;;;;5013138;28;20255;-75
2022/04/07 05:16:29;;;;;;;2.80;1.58;;;9.60;99.90;;;;;;5008313;28;20204;-74
2022/04/07 05:18:55;;;;;;;1.20;1.20;;;9.70;99.90;;;;;;5012919;28;20177;-74
2022/04/07 05:21:21;;;;;;;1.08;1.08;;;9.80;99.90;;;;;;5013220;28;20189;-74
2022/04/07 05:23:46;;;;;;;1.33;1.33;;;9.80;99.90;;;;;;5010304;28;20197;-75
2022/04/07 05:26:12;;;;;;;1.33;1.33;;;9.80;99.90;;;;;;4999831;28;20214;-74
2022/04/07 05:28:39;;;;;;;1.52;1.42;;;9.80;99.90;;;;;;5012283;28;20251;-74
2022/04/07 05:31:06;;;;;;;1.17;1.17;;;9.80;99.90;;;;;;5013600;28;20738;-75
2022/04/07 05:33:32;;;;;;;1.40;1.40;;;9.80;99.90;;;;;;5004877;28;20193;-74
2022/04/07 05:35:57;;;;;;;1.25;1.25;;;9.90;99.90;;;;;;5010810;28;20200;-74
2022/04/07 05:38:23;;;;;;;1.20;1.20;;;9.90;99.90;;;;;;5007574;28;20559;-74
2022/04/07 05:40:49;;;;;;;1.60;1.50;;;9.90;99.90;;;;;;5014342;28;20230;-74
2022/04/07 05:43:14;;;;;;;1.23;1.08;;;9.90;99.90;;;;;;5009098;28;20700;-74
2022/04/07 05:45:42;;;;;;;2.20;1.33;;;9.90;99.90;;;;;;5008998;28;20182;-74
2022/04/07 05:48:08;;;;;;;5.18;1.40;;;10.00;99.90;;;;;;5012782;28;20210;-74
2022/04/07 05:50:34;;;;;;;1.83;0.95;;;10.10;99.90;;;;;;5018555;28;20228;-74
2022/04/07 05:52:59;;;;;;;0.80;0.80;;;10.20;99.90;;;;;;5010705;28;20585;-75
2022/04/07 05:55:25;;;;;;;1.20;1.20;;;10.30;99.90;;;;;;5011365;28;20177;-74
2022/04/07 05:57:51;;;;;;;1.10;1.10;;;10.50;99.90;;;;;;5022863;28;20544;-74
2022/04/07 06:00:18;;;;;;;0.73;0.73;;;10.70;99.90;;;;;;5011349;28;20292;-75
2022/04/07 06:02:45;;;;;;;0.90;0.90;;;10.70;99.90;;;;;;5004141;28;20177;-75
2022/04/07 06:05:12;;;;;;;1.13;0.80;;;10.80;99.90;;;;;;5012386;28;20592;-77
2022/04/07 06:07:38;;;;;;;0.90;0.90;;;11.00;99.90;;;;;;5008932;28;20197;-75
2022/04/07 06:10:04;;;;;;;0.80;0.80;;;11.00;99.90;;;;;;5009402;28;20180;-75
2022/04/07 06:12:30;;;;;;;0.82;0.82;;;11.10;99.90;;;;;;5000795;28;20173;-75
2022/04/07 06:14:56;;;;;;;1.30;1.02;;;11.20;99.90;;;;;;5011928;28;20256;-74
2022/04/07 06:17:34;;;;;;;0.77;0.77;;;11.20;99.90;;;;;;5011394;28;20680;-74
2022/04/07 06:20:00;;;;;;;0.60;0.60;;;11.40;99.90;;;;;;4993785;28;20649;-75
2022/04/07 06:22:26;;;;;;;0.88;0.88;;;11.60;99.90;;;;;;5000361;28;20191;-75
2022/04/07 06:24:51;;;;;;;0.70;0.70;;;11.80;99.90;;;;;;5012238;28;20726;-74
2022/04/07 06:27:17;;;;;;;0.55;0.55;;;11.80;99.90;;;;;;5006395;28;20217;-75
2022/04/07 06:29:42;;;;;;;0.68;0.65;;;11.70;99.90;;;;;;5010629;28;20542;-75
2022/04/07 06:32:08;;;;;;;1.15;0.80;;;11.50;99.90;;;;;;5006878;28;20181;-72
2022/04/07 06:34:34;;;;;;;0.57;0.57;;;11.40;99.90;;;;;;5007882;28;20656;-74
2022/04/07 06:37:00;;;;;;;2.63;0.95;;;11.20;99.90;;;;;;5011449;28;20231;-73
2022/04/07 06:39:26;;;;;;;1.05;0.50;;;11.20;99.90;;;;;;5003757;28;20208;-73
2022/04/07 06:41:52;;;;;;;0.70;0.70;;;11.10;99.90;;;;;;5008051;28;20193;-74
2022/04/07 06:44:19;;;;;;;0.60;0.60;;;11.20;99.90;;;;;;4991251;28;20288;-73
2022/04/07 06:46:45;;;;;;;0.70;0.70;;;11.20;99.90;;;;;;5002039;28;20200;-73
2022/04/07 06:49:10;;;;;;;3.60;1.10;;;11.20;99.90;;;;;;5012907;28;20181;-73
2022/04/07 06:51:36;;;;;;;0.70;0.70;;;11.20;99.90;;;;;;5010736;28;20276;-73
2022/04/07 06:54:02;;;;;;;0.95;0.95;;;11.10;99.90;;;;;;4992276;28;20506;-73
2022/04/07 06:56:27;;;;;;;0.60;0.60;;;11.00;99.90;;;;;;4996808;28;20235;-76
2022/04/07 06:58:54;;;;;;;3.63;0.77;;;11.00;99.90;;;;;;5007952;28;20181;-76
2022/04/07 07:01:20;;;;;;;0.82;0.82;;;11.00;99.90;;;;;;5006680;28;20263;-74
2022/04/07 07:03:46;;;;;;;0.70;0.70;;;10.90;99.90;;;;;;5011630;28;20216;-75
2022/04/07 07:06:11;;;;;;;1.52;0.80;;;10.90;99.90;;;;;;5001072;28;20570;-76
2022/04/07 07:08:37;;;;;;;0.80;0.80;;;10.90;99.90;;;;;;5011706;28;20909;-76
2022/04/07 07:11:03;;;;;;;0.85;0.60;;;11.10;99.90;;;;;;5009708;28;20698;-76
2022/04/07 07:13:28;;;;;;;0.68;0.68;;;11.10;99.90;;;;;;5011664;28;20185;-75
2022/04/07 07:15:55;;;;;;;0.93;0.77;;;11.20;99.90;;;;;;5025938;28;20682;-77
2022/04/07 07:18:21;;;;;;;0.88;0.88;;;11.20;99.90;;;;;;5011812;28;20173;-75
2022/04/07 07:20:47;;;;;;;0.70;0.70;;;11.40;99.90;;;;;;5009187;28;20724;-73
2022/04/07 07:23:13;;;;;;;1.13;0.70;;;11.50;99.90;;;;;;5016843;28;20280;-74
2022/04/07 07:25:39;;;;;;;3.20;0.68;;;11.80;99.90;;;;;;5011794;28;20798;-74
2022/04/07 07:28:05;;;;;;;0.70;0.70;;;12.10;99.90;;;;;;5025081;28;20223;-76
2022/04/07 07:30:31;;;;;;;0.68;0.68;;;12.30;99.90;;;;;;5014722;28;20682;-73
2022/04/07 07:32:58;;;;;;;0.93;0.77;;;12.40;99.90;;;;;;4998274;28;20258;-73
2022/04/07 07:35:24;;;;;;;0.70;0.70;;;12.50;99.90;;;;;;5014634;28;20208;-73
2022/04/07 07:37:55;;;;;;;1.00;0.93;;;12.60;99.90;;;;;;5014977;28;20220;-73
2022/04/07 07:40:26;;;;;;;1.48;0.90;;;12.60;99.90;;;;;;5013308;28;20188;-71
2022/04/07 07:42:56;;;;;;;0.57;0.57;;;12.60;99.90;;;;;;5015020;28;20217;-73
2022/04/07 07:45:23;;;;;;;0.68;0.68;;;12.60;99.90;;;;;;5014783;28;20165;-74
2022/04/07 07:47:48;;;;;;;0.57;0.57;;;12.60;99.90;;;;;;5021943;28;20219;-72
2022/04/07 07:50:14;;;;;;;0.88;0.88;;;12.70;99.90;;;;;;5034038;28;20267;-72
2022/04/07 07:52:40;;;;;;;2.33;0.60;;;13.00;99.90;;;;;;5023871;28;20208;-72
2022/04/07 07:55:07;;;;;;;1.77;0.63;;;13.20;99.90;;;;;;5034365;28;20172;-74
2022/04/07 07:57:32;;;;;;;0.60;0.60;;;13.40;99.90;;;;;;5007727;28;20284;-73
2022/04/07 07:59:59;;;;;;;0.65;0.65;;;13.40;99.90;;;;;;5010080;28;20658;-74
2022/04/07 08:02:25;;;;;;;0.70;0.70;;;13.40;99.90;;;;;;5014285;28;20718;-73
2022/04/07 08:04:51;;;;;;;1.10;0.65;;;13.40;99.90;;;;;;5014578;28;20648;-72
2022/04/07 08:07:17;;;;;;;0.50;0.50;;;13.60;99.90;;;;;;5023074;28;20211;-72
2022/04/07 08:09:42;;;;;;;0.40;0.40;;;14.00;99.90;;;;;;5008131;28;20181;-72
2022/04/07 08:12:09;;;;;;;0.30;0.30;;;14.30;99.90;;;;;;5017692;28;20189;-78
2022/04/07 08:14:35;;;;;;;0.70;0.70;;;14.40;99.90;;;;;;5019208;28;20173;-75
2022/04/07 08:17:02;;;;;;;0.30;0.30;;;14.40;99.90;;;;;;5022009;28;20212;-75
2022/04/07 08:19:28;;;;;;;0.40;0.40;;;14.40;99.90;;;;;;5014627;28;20189;-74
2022/04/07 08:21:53;;;;;;;0.50;0.50;;;14.30;99.90;;;;;;5019954;28;20236;-74
2022/04/07 08:24:20;;;;;;;0.40;0.40;;;14.30;99.90;;;;;;5012973;28;20657;-74
2022/04/07 08:26:46;;;;;;;1.15;0.45;;;14.40;99.90;;;;;;5017730;28;20686;-73
2022/04/07 08:29:11;;;;;;;0.60;0.60;;;14.50;99.90;;;;;;5025822;28;20245;-74
2022/04/07 08:31:38;;;;;;;1.25;0.60;;;14.70;99.90;;;;;;5024592;28;20168;-73
2022/04/07 08:34:04;;;;;;;1.35;0.50;;;14.70;99.90;;;;;;5007857;28;20249;-75
2022/04/07 08:36:29;;;;;;;0.45;0.45;;;14.80;99.90;;;;;;5020312;28;20206;-73
2022/04/07 08:38:55;;;;;;;0.52;0.52;;;14.80;99.90;;;;;;5013823;28;20180;-73
2022/04/07 08:41:22;;;;;;;0.57;0.40;;;14.90;99.90;;;;;;5014399;28;20731;-72
2022/04/07 08:43:48;;;;;;;0.30;0.30;;;14.90;99.90;;;;;;5015212;28;20668;-76
2022/04/07 08:46:14;;;;;;;0.55;0.50;;;15.10;99.90;;;;;;5023625;28;20193;-76
2022/04/07 08:48:43;;;;;;;0.50;0.50;;;15.30;99.90;;;;;;5013947;28;20204;-76
2022/04/07 08:51:10;;;;;;;0.32;0.32;;;15.60;99.90;;;;;;5015060;28;20737;-75
2022/04/07 08:53:38;;;;;;;0.45;0.45;;;15.70;99.90;;;;;;5025040;28;20720;-74
2022/04/07 08:56:07;;;;;;;0.38;0.38;;;15.70;99.90;;;;;;5017535;28;20224;-74
2022/04/07 08:58:33;;;;;;;0.47;0.47;;;15.90;99.90;;;;;;5024426;28;20203;-73
2022/04/07 09:01:02;;;;;;;0.85;0.60;;;16.20;99.90;;;;;;5007796;28;20660;-73
2022/04/07 09:03:28;;;;;;;0.30;0.30;;;16.10;99.90;;;;;;5013462;28;20264;-76
2022/04/07 09:06:02;;;;;;;0.80;0.80;;;16.00;99.90;;;;;;5013179;28;20677;-74
2022/04/07 09:08:33;;;;;;;0.38;0.38;;;16.30;99.90;;;;;;5003600;28;20211;-74
2022/04/07 09:11:00;;;;;;;1.00;0.60;;;16.30;99.90;;;;;;5005901;28;20644;-74
2022/04/07 09:13:36;;;;;;;0.60;0.50;;;16.20;99.90;;;;;;5021953;28;20176;-75
2022/04/07 09:16:04;;;;;;;0.75;0.60;;;16.10;99.90;;;;;;5016552;28;20185;-74
2022/04/07 09:18:36;;;;;;;0.30;0.30;;;16.00;99.90;;;;;;5016020;28;20239;-74
2022/04/07 09:21:03;;;;;;;0.30;0.30;;;16.40;99.90;;;;;;5009565;28;20194;-74
2022/04/07 09:23:35;;;;;;;0.17;0.17;;;16.70;99.90;;;;;;5023025;28;20187;-72
2022/04/07 09:26:01;;;;;;;0.40;0.40;;;17.20;99.90;;;;;;5027063;28;20577;-74
2022/04/07 09:28:32;;;;;;;0.25;0.25;;;17.60;99.50;;;;;;5016796;28;20215;-73
2022/04/07 09:30:59;;;;;;;0.20;0.20;;;17.90;97.80;;;;;;5015332;28;20383;-75
2022/04/07 09:33:26;;;;;;;0.22;0.22;;;18.30;96.80;;;;;;5019504;28;20443;-76
2022/04/07 09:36:02;;;;;;;0.40;0.30;;;18.60;95.40;;;;;;5004325;28;20201;-74
2022/04/07 09:38:31;;;;;;;0.20;0.20;;;18.60;93.30;;;;;;5011909;28;20172;-72
2022/04/07 09:41:04;;;;;;;0.57;0.57;;;18.40;93.30;;;;;;5012818;28;20400;-74
2022/04/07 09:43:30;;;;;;;0.20;0.20;;;17.70;93.90;;;;;;5012916;28;20715;-73
2022/04/07 09:45:56;;;;;;;2.28;0.57;;;17.20;94.50;;;;;;5006435;28;20692;-73
2022/04/07 09:48:24;;;;;;;0.28;0.28;;;16.70;95.30;;;;;;5012158;28;20201;-73
2022/04/07 09:51:04;;;;;;;0.77;0.43;;;16.30;96.20;;;;;;5013288;28;20660;-73
2022/04/07 09:53:38;;;;;;;0.38;0.38;;;16.00;96.90;;;;;;5012701;28;20169;-73
2022/04/07 09:56:07;;;;;;;0.43;0.43;;;15.90;97.40;;;;;;5018175;28;20569;-74
2022/04/07 09:58:36;;;;;;;0.20;0.20;;;15.80;97.80;;;;;;5011110;28;20652;-74
2022/04/07 10:01:03;;;;;;;1.52;0.80;;;15.80;97.70;;;;;;5011025;28;20190;-74
2022/04/07 10:03:31;;;;;;;0.40;0.40;;;16.00;97.90;;;;;;5011936;28;20679;-72
2022/04/07 10:05:58;;;;;;;0.22;0.22;;;16.00;97.50;;;;;;5022119;28;20197;-71
2022/04/07 10:08:25;;;;;;;0.65;0.30;;;16.00;97.40;;;;;;5022826;28;20209;-73
2022/04/07 10:10:52;;;;;;;0.28;0.28;;;16.20;97.10;;;;;;5027060;28;20233;-74
2022/04/07 10:13:18;;;;;;;0.30;0.30;;;16.40;96.60;;;;;;5022585;28;20181;-72
2022/04/07 10:15:45;;;;;;;0.65;0.65;;;16.70;95.70;;;;;;5010502;28;20185;-73
2022/04/07 10:18:37;;;;;;;0.38;0.38;;;16.80;95.30;;;;;;5005651;28;20188;-74
2022/04/07 10:21:04;;;;;;;4.68;0.38;;;17.00;95.20;;;;;;5012211;28;20538;-74
2022/04/07 10:24:15;;;;;;;1.00;0.30;;;17.50;93.90;;;;;;5017903;28;20231;-74
2022/04/07 10:26:44;;;;;;;0.40;0.40;;;17.90;92.70;;;;;;4997710;28;20248;-71
2022/04/07 10:29:20;;;;;;;0.22;0.22;;;18.10;92.50;;;;;;5021156;28;20208;-73
2022/04/07 10:32:10;;;;;;;0.28;0.28;;;18.00;92.20;;;;;;5026649;28;20550;-73
2022/04/07 10:34:37;;;;;;;2.17;1.05;;;17.80;92.00;;;;;;4999706;28;20177;-73
2022/04/07 10:37:06;;;;;;;0.40;0.40;;;17.30;92.80;;;;;;5012449;28;20219;-73
2022/04/07 10:39:32;;;;;;;0.75;0.57;;;17.00;93.00;;;;;;5011892;28;20259;-76
2022/04/07 10:41:58;;;;;;;0.80;0.40;;;16.90;92.80;;;;;;5013854;28;20173;-75
2022/04/07 10:44:26;;;;;;;0.80;0.50;;;16.70;92.70;;;;;;5006682;28;20177;-71
2022/04/07 10:47:05;;;;;;;0.43;0.43;;;16.70;92.80;;;;;;4994419;28;20255;-70
2022/04/07 10:49:32;;;;;;;0.35;0.35;;;16.70;92.90;;;;;;5010440;28;20173;-71
2022/04/07 10:51:59;;;;;;;1.75;0.47;;;16.70;92.80;;;;;;5003758;28;20231;-70
2022/04/07 10:54:29;;;;;;;0.45;0.45;;;16.50;93.20;;;;;;5026967;28;20204;-71
2022/04/07 10:56:59;;;;;;;0.55;0.55;;;16.60;93.40;;;;;;5017210;28;20192;-73
2022/04/07 10:59:26;;;;;;;1.70;0.40;;;16.60;93.50;;;;;;5011171;28;20266;-76
2022/04/07 11:01:59;;;;;;;0.28;0.28;;;16.70;93.70;;;;;;5024401;28;20843;-70
2022/04/07 11:04:24;;;;;;;0.30;0.30;;;16.70;93.50;;;;;;5022752;28;20223;-69
2022/04/07 11:07:09;;;;;;;0.38;0.38;;;16.80;93.00;;;;;;5018890;28;20204;-70
2022/04/07 11:09:53;;;;;;;0.60;0.60;;;16.90;92.80;;;;;;5013704;28;20184;-72
2022/04/07 11:12:28;;;;;;;1.77;0.57;;;16.80;93.20;;;;;;5028943;28;20174;-70
2022/04/07 11:15:13;;;;;;;0.28;0.20;;;16.70;93.00;;;;;;5013282;28;20187;-71
2022/04/07 11:17:42;;;;;;;0.50;0.50;;;16.60;93.30;;;;;;5027028;28;20205;-71
2022/04/07 11:20:14;;;;;;;0.40;0.40;;;16.40;94.10;;;;;;5018533;28;20181;-71
2022/04/07 11:22:55;;;;;;;1.90;0.38;;;16.20;93.70;;;;;;5023649;28;20188;-71
2022/04/07 11:25:22;;;;;;;0.68;0.50;;;16.00;93.50;;;;;;5016349;28;20782;-71
2022/04/07 11:28:27;;;;;;;0.20;0.20;;;16.00;93.50;;;;;;5024622;28;20221;-71
2022/04/07 11:30:52;;;;;;;0.43;0.43;;;16.00;94.90;;;;;;5008191;28;20172;-71
2022/04/07 11:33:27;;;;;;;2.03;0.40;;;16.00;97.00;;;;;;5019901;28;20206;-71
2022/04/07 11:35:58;;;;;;;1.75;0.52;;;16.00;97.10;;;;;;5018887;28;20177;-71
2022/04/07 11:38:43;;;;;;;0.38;0.30;;;16.10;99.50;;;;;;5030923;28;20264;-72
2022/04/07 11:41:12;;;;;;;0.32;0.32;;;16.10;99.90;;;;;;5014538;28;20181;-75
2022/04/07 11:43:40;;;;;;;0.40;0.40;;;16.10;99.90;;;;;;5020472;28;20655;-70
2022/04/07 11:46:07;;;;;;;0.60;0.60;;;16.00;99.90;;;;;;5017596;28;20212;-73
2022/04/07 11:48:36;;;;;;;0.30;0.20;;;15.70;99.90;;;;;;5030883;28;20216;-71
2022/04/07 11:51:11;;;;;;;1.35;0.30;;;15.60;99.90;;;;;;5013602;28;20609;-70
2022/04/07 11:53:39;;;;;;;0.93;0.40;;;15.40;99.90;;;;;;5014244;28;20173;-70
2022/04/07 11:56:17;;;;;;;0.40;0.40;;;15.60;99.90;;;;;;5014072;28;20193;-71
2022/04/07 11:58:48;;;;;;;0.20;0.20;;;15.80;99.90;;;;;;5007474;28;20176;-70
2022/04/07 12:01:14;;;;;;;2.92;0.68;;;15.60;99.90;;;;;;5015053;28;20729;-70
2022/04/07 12:03:40;;;;;;;0.20;0.20;;;15.70;99.90;;;;;;5022792;28;20189;-70
2022/04/07 12:06:05;;;;;;;0.40;0.40;;;15.90;99.90;;;;;;5011148;28;20205;-71
2022/04/07 12:08:31;;;;;;;0.60;0.40;;;16.40;99.90;;;;;;5016207;28;20208;-74
2022/04/07 12:10:57;;;;;;;1.55;0.63;;;16.90;99.90;;;;;;5019569;28;20180;-70
2022/04/07 12:13:23;;;;;;;0.20;0.20;;;17.10;98.60;;;;;;5032714;28;20640;-70
2022/04/07 12:15:49;;;;;;;0.60;0.60;;;17.30;98.00;;;;;;5016136;28;20185;-70
2022/04/07 12:18:27;;;;;;;0.43;0.43;;;17.20;98.00;;;;;;5028995;28;20176;-71
2022/04/07 12:21:01;;;;;;;2.92;0.40;;;17.40;96.90;;;;;;5020841;28;20179;-72
2022/04/07 12:23:28;;;;;;;1.55;0.40;;;17.80;96.00;;;;;;5023506;28;20183;-71
2022/04/07 12:26:01;;;;;;;0.45;0.45;;;17.90;95.00;;;;;;4995924;28;20260;-73
2022/04/07 12:28:38;;;;;;;0.47;0.40;;;17.80;94.00;;;;;;5003377;28;20205;-71
2022/04/07 12:31:24;;;;;;;0.30;0.30;;;17.60;94.30;;;;;;5015363;28;20169;-74
2022/04/07 12:33:50;;;;;;;0.38;0.30;;;17.50;93.80;;;;;;4996290;28;20277;-72
2022/04/07 12:36:37;;;;;;;0.45;0.40;;;17.30;93.40;;;;;;5010831;28;20766;-72
2022/04/07 12:39:05;;;;;;;1.75;0.20;;;17.10;93.70;;;;;;5014017;28;20185;-71
2022/04/07 12:41:46;;;;;;;1.45;0.40;;;16.80;94.10;;;;;;5016909;28;20268;-71
2022/04/07 12:44:33;;;;;;;0.30;0.25;;;16.70;94.90;;;;;;5013575;28;20199;-72
2022/04/07 12:47:01;;;;;;;0.10;0.10;;;16.90;94.20;;;;;;5024300;28;20662;-74
2022/04/07 12:49:35;;;;;;;0.40;0.40;;;17.10;94.10;;;;;;5018032;28;20544;-73
2022/04/07 12:52:11;;;;;;;2.67;0.55;;;17.80;93.10;;;;;;5021965;28;20265;-74
2022/04/07 12:54:58;;;;;;;0.70;0.25;;;18.20;92.10;;;;;;5016310;28;20252;-77